Main page
METAR-TAF:

METAR-TAF

Airports :

Resia Pass, Italy

latitude: 46-50N, longitude: 010-30E, elevation: 1800 m

Current weather observation

The report was made 29 minutes ago, at 06:55 UTC
Wind 3 kt from the North
Temperature -6°C
Humidity 100%
Pressure 1012 hPa
Visibility 10 km or more
Overcast at a height of 2800 ft
light snow

METAR: LIVE 160655Z 01003KT 9999 -SN OVC028 M06/M06 Q1012 RMK OVC VIS MIN 9999

Time: 08:24 (07:24 UTC)


TAF: missing

Weather observations and forecasts of more than 4000 airports (METAR and TAF reports).

The available stations are represented by yellow and red dots on the map.

Hover mouse over dot to see the name of the station.

Then click to see weather observations and forecasts.

To change the map : click on the green buttons with a black cross to zoom in, on the green button with a dash to zoom out, or on the green arrows for adjacent maps.


METAR-TAF: